San Fermin Berria — EBVW — position and weather

sailwx.info

Track history (hours):
 
Tides and Currents Weather Stations Pressure Air Temp Water Temp Dewpoint Dewpoint Depression Visibility Wind Speed Wind Dir Waves Ship Positions

San Fermin Berria

Last reported at 2016-Jun-29 10:26 UTC. Time now 2016-Jun-29 11:04 UTC.
Position N 43°23' W 001°47'.

Length 30 m.

Type: Fishing. MMSI: 224114650.

Date/timePositionNaut miles runAvg speedWind from/ knotsBaromVisibWave heightAir tempDewpointWater temp
2016-Jun-29 10:26N 43°23' W 001°47'0 0.0
2016-Jun-29 09:33N 43°23' W 001°47'0 0.0
2016-Jun-29 08:33N 43°23' W 001°47'0 0.0
2016-Jun-29 07:32N 43°23' W 001°47'0 0.0
2016-Jun-29 06:24N 43°23' W 001°47'0 0.0
2016-Jun-29 01:29N 43°23' W 001°47'0 0.0
2016-Jun-29 00:29N 43°23' W 001°47'0 0.0
2016-Jun-28 23:32N 43°23' W 001°47'0 0.0
2016-Jun-28 22:32N 43°23' W 001°47'0 0.0
2016-Jun-28 21:33N 43°23' W 001°47'0 0.0
2016-Jun-28 20:33N 43°23' W 001°47'0 0.0
2016-Jun-28 19:29N 43°23' W 001°47'0 0.0
2016-Jun-28 12:28N 43°23' W 001°47'0 0.0
2016-Jun-28 11:33N 43°23' W 001°47'0 0.0
2016-Jun-28 10:33N 43°23' W 001°47'0 0.0
2016-Jun-28 09:33N 43°23' W 001°47'0 0.0
2016-Jun-28 08:33N 43°23' W 001°47'0 0.0
2016-Jun-28 07:33N 43°23' W 001°47'0 0.0
2016-Jun-28 06:31N 43°23' W 001°47'0 0.0
2016-Jun-28 00:24N 43°23' W 001°48'  
2016-Jun-23 19:33N 43°36' W 001°41'10 9.7
2016-Jun-23 18:33N 43°27' W 001°45'4 3.8
2016-Jun-23 17:33N 43°23' W 001°48'0 0.0
2016-Jun-22 13:33N 43°23' W 001°47'0 0.0
2016-Jun-21 13:08N 43°23' W 001°47'0 0.0
2016-Jun-21 12:33N 43°23' W 001°47'0 0.0
2016-Jun-21 11:34N 43°23' W 001°47'0 0.0
2016-Jun-21 10:33N 43°23' W 001°47'0 0.0
2016-Jun-21 09:33N 43°23' W 001°47'0 0.0
2016-Jun-21 08:33N 43°23' W 001°47'0 0.0
2016-Jun-21 07:33N 43°23' W 001°47'0 0.0
2016-Jun-21 05:33N 43°23' W 001°47'0 0.0
2016-Jun-21 04:33N 43°23' W 001°47'0 0.0
2016-Jun-21 03:33N 43°23' W 001°47'0 0.0
2016-Jun-21 02:33N 43°23' W 001°47'0 0.0
2016-Jun-21 01:33N 43°23' W 001°47'0 0.5
2016-Jun-21 00:33N 43°23' W 001°47'10 9.7
2016-Jun-20 23:32N 43°33' W 001°45'10 9.7
2016-Jun-20 22:33N 43°43' W 001°43'10 9.7
2016-Jun-20 21:33N 43°52' W 001°42'1010.0
2016-Jun-20 20:32N 44°02' W 001°40'9 2.8
2016-Jun-20 17:10N 44°12' W 001°41'1 1.3
2016-Jun-20 16:23N 44°11' W 001°40'1 1.3
2016-Jun-20 15:33N 44°10' W 001°40'30 5.5
2016-Jun-20 10:11N 43°40' W 001°46'6 9.5
2016-Jun-20 09:33N 43°34' W 001°46'9 9.4
2016-Jun-20 08:33N 43°25' W 001°47'2 2.1
2016-Jun-20 07:33N 43°23' W 001°47'  
Track history (hours):
 
Tides and Currents Weather Stations Pressure Air Temp Water Temp Dewpoint Dewpoint Depression Visibility Wind Speed Wind Dir Waves Ship Positions

San Fermin Berria

Last reported at 2016-Jun-29 10:26 UTC. Time now 2016-Jun-29 11:04 UTC.
Position N 43°23' W 001°47'.

Length 30 m.

Type: Fishing. MMSI: 224114650.

Date/timePositionNaut miles runAvg speedWind from/ knotsBaromVisibWave heightAir tempDewpointWater temp
2016-Jun-29 10:26N 43°23' W 001°47'0 0.0
2016-Jun-29 09:33N 43°23' W 001°47'0 0.0
2016-Jun-29 08:33N 43°23' W 001°47'0 0.0
2016-Jun-29 07:32N 43°23' W 001°47'0 0.0
2016-Jun-29 06:24N 43°23' W 001°47'0 0.0
2016-Jun-29 01:29N 43°23' W 001°47'0 0.0
2016-Jun-29 00:29N 43°23' W 001°47'0 0.0
2016-Jun-28 23:32N 43°23' W 001°47'0 0.0
2016-Jun-28 22:32N 43°23' W 001°47'0 0.0
2016-Jun-28 21:33N 43°23' W 001°47'0 0.0
2016-Jun-28 20:33N 43°23' W 001°47'0 0.0
2016-Jun-28 19:29N 43°23' W 001°47'0 0.0
2016-Jun-28 12:28N 43°23' W 001°47'0 0.0
2016-Jun-28 11:33N 43°23' W 001°47'0 0.0
2016-Jun-28 10:33N 43°23' W 001°47'0 0.0
2016-Jun-28 09:33N 43°23' W 001°47'0 0.0
2016-Jun-28 08:33N 43°23' W 001°47'0 0.0
2016-Jun-28 07:33N 43°23' W 001°47'0 0.0
2016-Jun-28 06:31N 43°23' W 001°47'0 0.0
2016-Jun-28 00:24N 43°23' W 001°48'  
2016-Jun-23 19:33N 43°36' W 001°41'10 9.7
2016-Jun-23 18:33N 43°27' W 001°45'4 3.8
2016-Jun-23 17:33N 43°23' W 001°48'0 0.0
2016-Jun-22 13:33N 43°23' W 001°47'0 0.0
2016-Jun-21 13:08N 43°23' W 001°47'0 0.0
2016-Jun-21 12:33N 43°23' W 001°47'0 0.0
2016-Jun-21 11:34N 43°23' W 001°47'0 0.0
2016-Jun-21 10:33N 43°23' W 001°47'0 0.0
2016-Jun-21 09:33N 43°23' W 001°47'0 0.0
2016-Jun-21 08:33N 43°23' W 001°47'0 0.0
2016-Jun-21 07:33N 43°23' W 001°47'0 0.0
2016-Jun-21 05:33N 43°23' W 001°47'0 0.0
2016-Jun-21 04:33N 43°23' W 001°47'0 0.0
2016-Jun-21 03:33N 43°23' W 001°47'0 0.0
2016-Jun-21 02:33N 43°23' W 001°47'0 0.0
2016-Jun-21 01:33N 43°23' W 001°47'0 0.5
2016-Jun-21 00:33N 43°23' W 001°47'10 9.7
2016-Jun-20 23:32N 43°33' W 001°45'10 9.7
2016-Jun-20 22:33N 43°43' W 001°43'10 9.7
2016-Jun-20 21:33N 43°52' W 001°42'1010.0
2016-Jun-20 20:32N 44°02' W 001°40'9 2.8
2016-Jun-20 17:10N 44°12' W 001°41'1 1.3
2016-Jun-20 16:23N 44°11' W 001°40'1 1.3
2016-Jun-20 15:33N 44°10' W 001°40'30 5.5
2016-Jun-20 10:11N 43°40' W 001°46'6 9.5
2016-Jun-20 09:33N 43°34' W 001°46'9 9.4
2016-Jun-20 08:33N 43°25' W 001°47'2 2.1
2016-Jun-20 07:33N 43°23' W 001°47'  

Dump ship's entire track history